Greeneville, TN

2:28 PM EST on March 05, 2015 (GMT -0500)
Elizabethton | Change Station
CLOSE
Current Station
Airport
Location: Elizabethton,
Elevation: 1594 ft
Nearby Weather Stations
Active Advisory: Winter Weather Advisory Active Notice: Public Information Statement

Elev 1594 ft 36.37 °N, 82.17 °W | Updated 13 minutes ago

Overcast
Overcast
30 °F
Feels Like 23 °F
N
7
Wind Variable Wind from Variable

Today
High -- | Low -- °F
--% Chance of Precip.
Yesterday
High -- | Low -- °F
Precip. -- in
6:56 AM 6:29 PM
Full, 100% visible
Pressure 30.04 in
Visibility 10.0 miles
Clouds Overcast 1000 ft
Windchill 23 °F
Dew Point 28 °F
Humidity 93%
Rainfall 0.00 in
Snow Depth Not available.
UV 2 out of 12
Pollen .80 out of 12
Air Quality Not available.
Flu Activity Not available.
METAR K0A9 051915Z AUTO VRB06KT 10SM OVC010 M01/M02 A3004 RMK

More Conditions Fewer Conditions

Pressure 30.04 in
Visibility 10.0 miles
Clouds Overcast 1000 ft
Windchill 23 °F
Dew Point 28 °F
Humidity 93%
Rainfall 0.00 in
Snow Depth Not available.
UV 2 out of 12
Pollen .80 out of 12
Air Quality Not available.
Flu Activity Not available.
METAR K0A9 051915Z AUTO VRB06KT 10SM OVC010 M01/M02 A3004 RMK

More Conditions Fewer Conditions

10-Day Weather Forecast

Almanac

Astronomy

Mar. 05, 2015 Rise Set
Actual Time
Civil Twilight
Nautical Twilight
Astronomical Twilight
Moon
Length of Visible Light
Length of Day
Tomorrow will be .
, % of the Moon is Illuminated

Today's Extremes

State Highs State Lows

Community

WunderPhotos

Upload Photos

1,802,915 photos uploaded!

WunderBlogs® & News

Nearby

Air Quality

  Air Quality AQ Index Pollutant
Not available.

Snow Depth

Station Depth Elevation

Earthquake Activity

City Distance Mag. Time & Date
Minimum magnitude displayed is 2.5.

Coastal Water Temperatures

Place Temperature

Nearby Weather Stations

Winter Weather Advisory
Statement as of 10:38 AM EST on March 05, 2015

... Winter Weather Advisory remains in effect until 4 PM EST this
afternoon...

* event... rain early then a wintry mix with freezing rain changing
to sleet and snow. Freezing rain accumulations less than quarter
of an inch. Sleet and snow with accumulations generally 1 inch or
less.

* Timing... the wintry mix will continue until 4 PM EST this
afternoon.

* Impacts... Road conditions will become hazardous. When
traveling... slow down and drive with caution. Give yourself
extra room between you and the vehicle ahead of you. The ice
accumulations may down trees and power lines with localized
power outages possible.

Precautionary/preparedness actions...

A Winter Weather Advisory means that periods of snow... sleet...
and/or freezing rain are expected or occurring... but
accumulations are expected to be light. Driving and walking may
be difficult on untreated roadways and sidewalks. Be prepared for
snow and ice covered roads and limited visibilities. If you must
travel... slow down and allow extra time to reach your
destination.